Data for 09/04/2006

Time Sea-Level Adjusted Pressure Absolute Pressure Temperature Relative Humidity Dew Point   
(mb) (inHg) (mb) (inHg) (C) (F) (%) (C) (F)
00:05 1021 30.15 850 25.1 18.8 65.8 14 -8.8 16.1
00:10 1021 30.15 850 25.1 18.7 65.6 14 -9 15.8
00:15 1021 30.15 850 25.1 18.5 65.3 14 -9.1 15.7
00:20 1021 30.15 850 25.1 18.6 65.5 14 -9.2 15.4
00:25 1021 30.15 851 25.13 18.6 65.5 14 -9.1 15.7
00:30 1021 30.15 850 25.1 18.5 65.3 14 -9.1 15.6
00:35 1021 30.15 850 25.1 18.5 65.3 14 -9 15.8
00:40 1021 30.15 851 25.13 18.3 64.9 15 -9 15.8
00:45 1021 30.15 851 25.13 18.2 64.7 15 -9 15.8
00:50 1021 30.15 851 25.13 18.1 64.6 15 -9.1 15.6
00:55 1021 30.15 851 25.13 18.2 64.7 15 -9 15.7
01:00 1021 30.15 851 25.13 18.1 64.5 15 -9 15.8
01:05 1021 30.15 851 25.13 18.1 64.5 15 -9.1 15.6
01:10 1021 30.15 850 25.1 18.1 64.6 15 -9.2 15.4
01:15 1021 30.15 851 25.13 18.1 64.6 15 -9 15.8
01:20 1021 30.15 851 25.13 18 64.4 15 -9.1 15.6
01:25 1021 30.15 851 25.13 18.1 64.5 15 -9.1 15.7
01:30 1021 30.15 851 25.13 18 64.4 15 -9.1 15.6
01:35 1021 30.15 851 25.13 17.9 64.2 15 -9.1 15.7
01:40 1021 30.15 851 25.13 17.9 64.3 15 -9.1 15.6
01:45 1021 30.15 851 25.13 17.8 64.1 15 -9.1 15.6
01:50 1021 30.15 851 25.13 17.7 63.9 15 -9.1 15.7
01:55 1021 30.15 851 25.13 17.7 63.9 15 -9.2 15.4
02:00 1021 30.15 851 25.13 17.6 63.8 15 -9.1 15.6
02:05 1021 30.15 851 25.13 17.6 63.7 15 -9.1 15.7
02:10 1021 30.15 850 25.1 17.4 63.3 15 -9.3 15.2
02:15 1021 30.15 850 25.1 17.4 63.4 15 -9.3 15.3
02:20 1021 30.15 850 25.1 17.4 63.4 15 -9.2 15.4
02:25 1021 30.15 850 25.1 17.4 63.3 15 -9.3 15.2
02:30 1021 30.15 850 25.1 17.4 63.4 15 -9.2 15.4
02:35 1021 30.15 850 25.1 17.4 63.3 15 -9.3 15.3
02:40 1021 30.15 851 25.13 17.4 63.3 15 -9.4 15
02:45 1021 30.15 851 25.13 17.4 63.2 15 -9.4 15
02:50 1021 30.15 851 25.13 17.3 63.2 16 -9.1 15.7
02:55 1022 30.18 851 25.13 17.2 62.9 15 -9.3 15.3
03:00 1021 30.15 851 25.13 17.1 62.9 15 -9.3 15.3
03:05 1022 30.18 851 25.13 17.1 62.8 15 -9.3 15.2
03:10 1022 30.18 851 25.13 17.1 62.8 15 -9.3 15.3
03:15 1022 30.18 851 25.13 17 62.6 16 -9.2 15.5
03:20 1022 30.18 851 25.13 16.9 62.4 16 -9.2 15.4
03:25 1022 30.18 851 25.13 17 62.5 16 -9.1 15.5
03:30 1022 30.18 851 25.13 17 62.6 16 -9.2 15.5
03:35 1022 30.18 851 25.13 17 62.7 16 -9.2 15.5
03:40 1022 30.18 851 25.13 17.1 62.7 16 -9.1 15.6
03:45 1022 30.18 851 25.13 17 62.5 16 -9 15.8
03:50 1022 30.18 851 25.13 16.9 62.4 16 -9.1 15.7
03:55 1022 30.18 851 25.13 16.8 62.2 16 -9.3 15.3
04:00 1022 30.18 851 25.13 16.8 62.3 16 -9.2 15.5
04:05 1022 30.18 851 25.13 16.9 62.3 16 -9.1 15.6
04:10 1022 30.18 851 25.13 16.9 62.4 16 -9.1 15.6
04:15 1022 30.18 851 25.13 16.8 62.3 16 -9 15.7
04:20 1022 30.18 851 25.13 16.8 62.3 16 -8.9 16
04:25 1022 30.18 851 25.13 16.7 62 17 -8.4 16.8
04:30 1022 30.18 851 25.13 16.4 61.6 17 -8.5 16.8
04:35 1022 30.18 851 25.13 16.5 61.6 17 -8.6 16.5
04:40 1022 30.18 851 25.13 16.5 61.6 16 -9 15.7
04:45 1022 30.18 851 25.13 16.6 61.9 17 -8.8 16.2
04:50 1022 30.18 851 25.13 16.5 61.8 17 -8.6 16.5
04:55 1022 30.18 851 25.13 16.5 61.7 17 -8.4 16.9
05:00 1022 30.18 851 25.13 16.4 61.6 17 -8.4 16.9
05:05 1022 30.18 851 25.13 16.4 61.4 18 -8.3 17.1
05:10 1022 30.18 851 25.13 16.3 61.3 17 -8.4 16.9
05:15 1022 30.18 851 25.13 16.2 61.2 18 -8.2 17.2
05:20 1022 30.18 851 25.13 16.1 61 18 -8.1 17.4
05:25 1022 30.18 851 25.13 16 60.7 19 -7.9 17.8
05:30 1022 30.18 851 25.13 15.6 60.1 19 -7.8 17.9
05:35 1022 30.18 852 25.16 15.3 59.5 20 -7.4 18.6
05:40 1022 30.18 852 25.16 14.9 58.9 20 -7.5 18.5
05:45 1022 30.18 852 25.16 14.9 58.8 20 -7.6 18.4
05:50 1022 30.18 852 25.16 15 59.1 20 -7.6 18.4
05:55 1022 30.18 852 25.16 15.1 59.1 20 -7.5 18.5
06:00 1022 30.18 852 25.16 15.2 59.4 20 -7.5 18.5
06:05 1022 30.18 852 25.16 15.1 59.2 20 -7.6 18.4
06:10 1022 30.18 852 25.16 15.1 59.2 20 -7.5 18.5
06:15 1022 30.18 852 25.16 15 59 21 -7.3 18.9
06:20 1022 30.18 852 25.16 14.7 58.5 21 -7.3 18.9
06:25 1022 30.18 852 25.16 14.5 58.1 23 -6.5 20.4
06:30 1022 30.18 852 25.16 13.3 55.9 26 -6 21.1
06:35 1022 30.18 852 25.16 12.8 55.1 26 -6 21.2
06:40 1022 30.18 852 25.16 12.4 54.2 27 -6.1 21.1
06:45 1023 30.21 852 25.16 12.1 53.7 28 -6 21.2
06:50 1023 30.21 852 25.16 12.1 53.8 27 -6.1 21
06:55 1023 30.21 852 25.16 11.8 53.3 28 -6.3 20.7
07:00 1023 30.21 852 25.16 11.6 52.9 29 -5.8 21.5
07:05 1023 30.21 852 25.16 11.2 52.2 29 -5.9 21.4
07:10 1023 30.21 852 25.16 11.1 52 30 -6 21.2
07:15 1023 30.21 852 25.16 11.1 52 29 -6.4 20.4
07:20 1023 30.21 852 25.16 11.4 52.6 28 -6.6 20.1
07:25 1023 30.21 852 25.16 11.8 53.2 28 -6.2 20.8
07:30 1023 30.21 852 25.16 11.9 53.5 27 -6.4 20.5
07:35 1023 30.21 852 25.16 12.1 53.9 26 -6.7 20
07:40 1023 30.21 852 25.16 12.2 54 26 -6.5 20.3
07:45 1023 30.21 852 25.16 12.2 54 27 -6.1 21
07:50 1023 30.21 852 25.16 12.1 53.8 27 -6.5 20.4
07:55 1023 30.21 853 25.19 12.4 54.4 27 -6 21.2
08:00 1023 30.21 853 25.19 12.3 54.1 28 -5.6 22
08:05 1023 30.21 853 25.19 12.3 54.1 28 -5.9 21.4
08:10 1024 30.24 853 25.19 12.5 54.4 28 -5.7 21.8
08:15 1024 30.24 853 25.19 12.6 54.8 27 -5.8 21.6
08:20 1024 30.24 853 25.19 12.8 55 26 -6.3 20.6
08:25 1024 30.24 853 25.19 13 55.4 27 -5.4 22.3
08:30 1024 30.24 853 25.19 13.4 56 27 -5.2 22.6
08:35 1024 30.24 853 25.19 13.8 56.8 25 -5.7 21.7
08:40 1024 30.24 853 25.19 14.1 57.4 26 -5 23
08:45 1024 30.24 853 25.19 14.2 57.5 25 -5.6 21.9
08:50 1024 30.24 853 25.19 14.7 58.5 26 -4.7 23.5
08:55 1024 30.24 853 25.19 14.3 57.8 27 -4.3 24.2
09:00 1024 30.24 853 25.19 14.3 57.8 24 -5.9 21.3
09:05 1024 30.24 853 25.19 15 58.9 24 -5.3 22.5
09:10 1024 30.24 853 25.19 15 59 24 -5.6 22
09:15 1024 30.24 853 25.19 15.3 59.5 24 -5 23.1
09:20 1024 30.24 853 25.19 15.3 59.6 26 -3.8 25.2
09:25 1024 30.24 853 25.19 15.4 59.8 27 -3.5 25.7
09:30 1024 30.24 853 25.19 15.3 59.6 26 -4.2 24.4
09:35 1024 30.24 853 25.19 15.6 60.1 26 -3.9 25
09:40 1024 30.24 853 25.19 15.8 60.5 27 -3 26.7
09:45 1024 30.24 853 25.19 16.4 61.6 29 -1.8 28.8
09:50 1024 30.24 853 25.19 16.8 62.2 27 -2.3 27.8
09:55 1024 30.24 853 25.19 17 62.7 27 -2.2 28
10:00 1024 30.24 853 25.19 18 64.3 27 -1 30.3
10:05 1024 30.24 853 25.19 18.2 64.7 26 -1.5 29.4
10:10 1024 30.24 853 25.19 18.3 65 26 -1.4 29.5
10:15 1024 30.24 853 25.19 19.1 66.3 25 -1.1 29.9
10:20 1024 30.24 853 25.19 19.4 67 24 -1.3 29.7
10:25 1024 30.24 853 25.19 19.7 67.5 26 -0.3 31.5
10:30 1024 30.24 853 25.19 19.2 66.6 26 -0.6 30.9
10:35 1024 30.24 853 25.19 18.9 66 26 -0.8 30.6
10:40 1024 30.24 853 25.19 19.3 66.7 25 -0.9 30.4
10:45 1024 30.24 853 25.19 19.7 67.5 25 -0.5 31
10:50 1024 30.24 853 25.19 19.5 67.2 23 -1.7 28.9
10:55 1024 30.24 853 25.19 19.4 67 22 -2.9 26.9
11:00 1024 30.24 853 25.19 19.9 67.8 21 -2.9 26.7
11:05 1024 30.24 853 25.19 19.8 67.6 21 -2.8 27
11:10 1024 30.24 853 25.19 20.4 68.8 18 -4.2 24.4
11:15 1024 30.24 853 25.19 20.5 69 19 -4 24.8
11:20 1024 30.24 853 25.19 21 69.9 16 -5.4 22.3
11:25 1024 30.24 853 25.19 21.8 71.2 16 -4.7 23.5
11:30 1024 30.24 853 25.19 22.5 72.4 15 -5.4 22.3
11:35 1023 30.21 853 25.19 22.5 72.5 15 -5.3 22.4
11:40 1023 30.21 853 25.19 22.4 72.3 15 -5.7 21.7
11:45 1023 30.21 853 25.19 22.7 72.8 14 -5.8 21.6
11:50 1023 30.21 853 25.19 22.4 72.3 15 -5.6 21.9
11:55 1023 30.21 853 25.19 22.8 73.1 15 -4.7 23.5
12:00 1023 30.21 853 25.19 23.5 74.2 14 -5.1 22.9
12:05 1023 30.21 853 25.19 24.1 75.3 14 -5 23
12:10 1023 30.21 853 25.19 24.3 75.8 13 -5.2 22.6
12:15 1023 30.21 852 25.16 24.5 76 14 -4.6 23.8
12:20 1023 30.21 852 25.16 24.3 75.7 14 -4.3 24.2
12:25 1023 30.21 852 25.16 24.3 75.7 14 -4.9 23.2
12:30 1023 30.21 852 25.16 24.4 75.9 14 -4.8 23.4
12:35 1023 30.21 852 25.16 24 75.1 14 -4.6 23.6
12:40 1023 30.21 852 25.16 24.2 75.6 14 -4.7 23.6
12:45 1023 30.21 852 25.16 24.8 76.7 14 -4.1 24.7
12:50 1023 30.21 852 25.16 25.3 77.6 13 -4.5 23.9
12:55 1023 30.21 852 25.16 24.9 76.8 14 -4.1 24.6
13:00 1023 30.21 852 25.16 24.9 76.8 14 -4 24.8
13:05 1023 30.21 852 25.16 25.2 77.3 14 -4.2 24.4
13:10 1023 30.21 852 25.16 25.5 77.9 14 -4 24.8
13:15 1023 30.21 852 25.16 25.6 78.1 15 -3.1 26.5
13:20 1023 30.21 852 25.16 24.8 76.6 14 -4.1 24.6
13:25 1023 30.21 852 25.16 24.8 76.6 14 -4.1 24.6
13:30 1023 30.21 852 25.16 24.9 76.9 14 -4.5 24
13:35 1023 30.21 852 25.16 24.8 76.7 14 -4.5 23.9
13:40 1023 30.21 852 25.16 25.2 77.3 13 -4.6 23.7
13:45 1023 30.21 852 25.16 25.3 77.5 14 -4.1 24.6
13:50 1023 30.21 852 25.16 25.4 77.8 14 -4 24.9
13:55 1022 30.18 852 25.16 26.6 79.9 13 -4.3 24.3
14:00 1022 30.18 852 25.16 27.1 80.7 13 -3.2 26.3
14:05 1022 30.18 852 25.16 27.2 81 14 -2.8 27
14:10 1022 30.18 852 25.16 27.1 80.8 13 -3.7 25.3
14:15 1022 30.18 852 25.16 26 78.8 13 -3.8 25.2
14:20 1022 30.18 852 25.16 26.1 79 14 -3.4 25.9
14:25 1022 30.18 852 25.16 25.7 78.3 14 -3.8 25.2
14:30 1022 30.18 851 25.13 25.7 78.3 14 -3.7 25.3
14:35 1022 30.18 851 25.13 26.2 79.1 13 -4 24.8
14:40 1022 30.18 851 25.13 26.1 79 13 -3.8 25.1
14:45 1022 30.18 851 25.13 27 80.6 13 -3 26.5
14:50 1022 30.18 851 25.13 27.5 81.5 15 -0.8 30.6
14:55 1022 30.18 851 25.13 27.6 81.7 13 -3.1 26.5
15:00 1022 30.18 851 25.13 27.7 81.8 13 -2.9 26.8
15:05 1022 30.18 851 25.13 27.4 81.3 13 -3 26.6
15:10 1022 30.18 851 25.13 27.2 80.9 14 -2.5 27.5
15:15 1022 30.18 851 25.13 27.9 82.3 13 -2.9 26.7
15:20 1022 30.18 851 25.13 27.6 81.8 13 -2.8 26.9
15:25 1022 30.18 851 25.13 27.6 81.7 14 -2.4 27.7
15:30 1022 30.18 851 25.13 28 82.4 13 -2.6 27.3
15:35 1022 30.18 851 25.13 28.2 82.7 12 -3.4 26
15:40 1022 30.18 851 25.13 27.5 81.5 13 -2.8 26.9
15:45 1022 30.18 851 25.13 28.1 82.7 13 -3 26.6
15:50 1022 30.18 851 25.13 28.2 82.8 13 -3 26.6
15:55 1022 30.18 851 25.13 28.9 84 13 -2.4 27.6
16:00 1022 30.18 851 25.13 29.4 84.8 13 -1.7 29
16:05 1022 30.18 851 25.13 28.8 83.9 12 -2.9 26.7
16:10 1022 30.18 851 25.13 29.1 84.3 13 -2.1 28.3
16:15 1022 30.18 851 25.13 29.3 84.8 13 -2.1 28.2
16:20 1022 30.18 851 25.13 29.1 84.4 12 -2.6 27.3
16:25 1022 30.18 851 25.13 29 84.2 12 -2.7 27.1
16:30 1022 30.18 851 25.13 28.8 83.9 12 -3 26.7
16:35 1022 30.18 851 25.13 28.8 83.8 12 -3.4 25.9
16:40 1022 30.18 851 25.13 28.6 83.6 12 -3 26.6
16:45 1022 30.18 851 25.13 28.6 83.5 12 -3.3 26.1
16:50 1022 30.18 851 25.13 28.6 83.5 12 -3.7 25.4
16:55 1022 30.18 851 25.13 28.2 82.7 11 -4.8 23.4
17:00 1022 30.18 851 25.13 28.1 82.6 11 -4.7 23.5
17:05 1022 30.18 851 25.13 28 82.4 12 -4.3 24.3
17:10 1021 30.15 851 25.13 27.8 82 11 -4.9 23.2
17:15 1021 30.15 851 25.13 27.4 81.3 11 -5.1 22.8
17:20 1021 30.15 851 25.13 27 80.5 11 -5.5 22
17:25 1021 30.15 851 25.13 26.8 80.3 11 -5.8 21.6
17:30 1021 30.15 851 25.13 26.7 80 11 -5.5 22.1
17:35 1021 30.15 851 25.13 26.5 79.7 11 -5.8 21.6
17:40 1021 30.15 851 25.13 26.4 79.4 11 -6.5 20.3
17:45 1021 30.15 851 25.13 26.4 79.5 10 -7.4 18.7
17:50 1021 30.15 851 25.13 26.3 79.4 10 -7.7 18.2
17:55 1022 30.18 851 25.13 26.1 78.9 10 -7.9 17.9
18:00 1022 30.18 851 25.13 25.9 78.7 10 -7.8 18
18:05 1022 30.18 851 25.13 25.8 78.5 10 -7.8 17.9
18:10 1021 30.15 851 25.13 25.6 78.1 10 -7.9 17.8
18:15 1022 30.18 851 25.13 25.6 78 10 -7.9 17.8
18:20 1022 30.18 851 25.13 25.4 77.8 10 -7.8 18
18:25 1022 30.18 851 25.13 25.3 77.6 11 -7.4 18.8
18:30 1021 30.15 851 25.13 25.2 77.4 11 -7.2 19.1
18:35 1022 30.18 851 25.13 25.1 77.3 11 -6.9 19.5
18:40 1022 30.18 851 25.13 25.1 77.2 11 -7.2 19.1
18:45 1022 30.18 851 25.13 25 77 11 -7.2 19
18:50 1022 30.18 851 25.13 24.9 76.8 11 -7.2 19
18:55 1022 30.18 851 25.13 24.9 76.8 11 -7.4 18.7
19:00 1022 30.18 851 25.13 24.8 76.6 11 -7.1 19.1
19:05 1022 30.18 851 25.13 24.7 76.4 11 -7.1 19.2
19:10 1022 30.18 851 25.13 24.7 76.4 11 -7.3 18.9
19:15 1022 30.18 851 25.13 24.6 76.3 12 -6.8 19.7
19:20 1022 30.18 851 25.13 24.5 76.1 12 -6.9 19.6
19:25 1022 30.18 851 25.13 24.4 75.9 12 -6.9 19.6
19:30 1022 30.18 851 25.13 24.3 75.7 12 -6.8 19.7
19:35 1022 30.18 851 25.13 24.2 75.5 12 -6.4 20.4
19:40 1022 30.18 851 25.13 23.9 75 12 -6.5 20.2
19:45 1022 30.18 851 25.13 23.7 74.7 12 -6.8 19.8
19:50 1022 30.18 851 25.13 23.5 74.3 12 -7 19.4
19:55 1022 30.18 851 25.13 23.4 74.1 12 -7 19.4
20:00 1022 30.18 851 25.13 23.3 74 12 -7 19.5
20:05 1022 30.18 851 25.13 23.2 73.8 12 -7.1 19.2
20:10 1022 30.18 851 25.13 23.2 73.8 12 -7.3 18.9
20:15 1022 30.18 851 25.13 23.2 73.8 12 -7.2 19.1
20:20 1022 30.18 851 25.13 23.3 74 12 -7.1 19.2
20:25 1022 30.18 851 25.13 23.5 74.3 12 -7 19.5
20:30 1022 30.18 852 25.16 23.4 74.1 13 -6.9 19.6
20:35 1022 30.18 852 25.16 23.3 74 13 -6.9 19.5
20:40 1022 30.18 852 25.16 23.1 73.7 13 -6.6 20
20:45 1022 30.18 852 25.16 23 73.5 13 -6.6 20.2
20:50 1022 30.18 852 25.16 23 73.4 13 -6.8 19.8
20:55 1022 30.18 851 25.13 23.1 73.5 13 -6.5 20.3
21:00 1022 30.18 852 25.16 23.1 73.5 13 -6.5 20.2
21:05 1023 30.21 852 25.16 22.9 73.2 14 -6.3 20.7
21:10 1023 30.21 852 25.16 22.6 72.7 14 -6.2 20.8
21:15 1023 30.21 852 25.16 22.5 72.5 14 -6.3 20.7
21:20 1023 30.21 852 25.16 22.2 72 14 -6.2 20.8
21:25 1023 30.21 852 25.16 22.2 72 14 -6.1 21.1
21:30 1023 30.21 852 25.16 22.3 72.1 14 -6.2 20.9
21:35 1023 30.21 852 25.16 22.3 72.2 14 -6 21.2
21:40 1023 30.21 852 25.16 22.2 71.9 15 -5.9 21.3
21:45 1023 30.21 852 25.16 22.2 71.9 15 -5.9 21.4
21:50 1023 30.21 852 25.16 22.1 71.8 15 -5.9 21.3
21:55 1023 30.21 852 25.16 22.1 71.7 15 -5.7 21.8
22:00 1023 30.21 852 25.16 21.9 71.4 15 -5.7 21.8
22:05 1023 30.21 852 25.16 21.7 71 15 -5.6 21.9
22:10 1023 30.21 852 25.16 21.5 70.8 15 -5.6 21.9
22:15 1023 30.21 852 25.16 21.4 70.5 16 -5.6 22
22:20 1023 30.21 852 25.16 21.2 70.1 16 -5.5 22
22:25 1023 30.21 852 25.16 21.2 70.1 16 -5.4 22.2
22:30 1023 30.21 852 25.16 21.2 70.2 16 -5.7 21.8
22:35 1023 30.21 852 25.16 21.2 70.2 16 -5.4 22.2
22:40 1023 30.21 852 25.16 21.1 69.9 16 -5.5 22.1
22:45 1023 30.21 852 25.16 21.1 70 16 -5.4 22.2
22:50 1023 30.21 852 25.16 21.1 69.9 16 -5.2 22.6
22:55 1023 30.21 852 25.16 20.8 69.4 17 -4.7 23.6
23:00 1023 30.21 853 25.19 20.5 68.8 18 -4.7 23.5
23:05 1023 30.21 853 25.19 20.2 68.3 19 -4.3 24.2
23:10 1023 30.21 853 25.19 19.8 67.6 19 -4.3 24.2
23:15 1023 30.21 853 25.19 19.6 67.2 19 -4.4 24.1
23:20 1023 30.21 852 25.16 19.7 67.5 19 -4.5 23.9
23:25 1023 30.21 852 25.16 19.9 67.8 19 -4.4 24.1
23:30 1023 30.21 852 25.16 20 67.9 19 -4.5 23.9
23:35 1023 30.21 852 25.16 20 68.1 19 -4.1 24.6
23:40 1023 30.21 853 25.19 19.6 67.3 19 -4.2 24.5
23:45 1023 30.21 853 25.19 19.3 66.8 20 -4 24.7
23:50 1023 30.21 853 25.19 19.4 67 19 -4.3 24.3
23:55 1023 30.21 853 25.19 19.5 67.1 19 -4.4 24
24:00 1023 30.21 853 25.19 19.7 67.5 19 -4.3 24.2